Auburn, Kentucky
Current Conditions -  °F | °C
As of 5:53 PM on Friday 21 Nov 2014 (Local Time) from KBWG Reporting Station
Broken Clouds Broken Clouds  
Wind Chill: 36°   Ceiling: 8000
Heat Index: 40°   Visibility: 10mi
Dew Point: 19°   Wind: 6mph
Humidity: 43%   Direction: 50°NE
Pressure: 30.39"   Gusts: NA
Location:  36.86°N, 86.71°W
Report Text: KBWG 212353Z AUTO 05005KT 10SM BKN080 04/M07 A3039 RMK AO2 SLP297 T00441072 10089 20039 58003
Loading
Personal Weather Stations






























Interactive Weather Map New forecast layout! Learn more

10-Day Weather Forecast

Advertisements
Track Severe Weather on mobile